sensor_id;sensor_type;location;lat;lon;timestamp;P1;durP1;ratioP1;P2;durP2;ratioP2
24617;SDS011;12762;51.730;5.356;2022-11-15T00:01:06;38.77;;;18.37;;
24617;SDS011;12762;51.730;5.356;2022-11-15T00:03:34;42.50;;;18.90;;
24617;SDS011;12762;51.730;5.356;2022-11-15T00:06:01;39.47;;;18.83;;
24617;SDS011;12762;51.730;5.356;2022-11-15T00:08:30;45.80;;;18.80;;
24617;SDS011;12762;51.730;5.356;2022-11-15T00:11:01;42.70;;;18.47;;
24617;SDS011;12762;51.730;5.356;2022-11-15T00:13:29;50.93;;;20.33;;
24617;SDS011;12762;51.730;5.356;2022-11-15T00:15:57;46.17;;;18.80;;
24617;SDS011;12762;51.730;5.356;2022-11-15T00:18:25;50.27;;;20.47;;
24617;SDS011;12762;51.730;5.356;2022-11-15T00:20:56;48.37;;;20.10;;
24617;SDS011;12762;51.730;5.356;2022-11-15T00:23:28;55.23;;;21.27;;
24617;SDS011;12762;51.730;5.356;2022-11-15T00:25:56;53.47;;;20.47;;
24617;SDS011;12762;51.730;5.356;2022-11-15T00:28:25;54.17;;;21.27;;
24617;SDS011;12762;51.730;5.356;2022-11-15T00:31:02;50.50;;;20.83;;
24617;SDS011;12762;51.730;5.356;2022-11-15T00:33:30;44.27;;;18.47;;
24617;SDS011;12762;51.730;5.356;2022-11-15T00:36:05;49.90;;;19.87;;
24617;SDS011;12762;51.730;5.356;2022-11-15T00:38:36;48.10;;;20.03;;
24617;SDS011;12762;51.730;5.356;2022-11-15T00:41:04;46.07;;;20.97;;
24617;SDS011;12762;51.730;5.356;2022-11-15T00:43:35;50.20;;;21.13;;
24617;SDS011;12762;51.730;5.356;2022-11-15T00:46:04;45.23;;;19.97;;
24617;SDS011;12762;51.730;5.356;2022-11-15T00:48:31;50.50;;;20.70;;
24617;SDS011;12762;51.730;5.356;2022-11-15T00:50:58;47.20;;;20.77;;
24617;SDS011;12762;51.730;5.356;2022-11-15T00:53:25;49.70;;;20.77;;
24617;SDS011;12762;51.730;5.356;2022-11-15T00:55:52;46.93;;;20.50;;
24617;SDS011;12762;51.730;5.356;2022-11-15T00:58:19;45.43;;;21.17;;
24617;SDS011;12762;51.730;5.356;2022-11-15T01:00:46;46.40;;;20.57;;
24617;SDS011;12762;51.730;5.356;2022-11-15T01:03:15;47.37;;;20.70;;
24617;SDS011;12762;51.730;5.356;2022-11-15T01:05:42;50.80;;;21.30;;
24617;SDS011;12762;51.730;5.356;2022-11-15T01:08:15;42.07;;;20.53;;
24617;SDS011;12762;51.730;5.356;2022-11-15T01:10:42;39.03;;;19.33;;
24617;SDS011;12762;51.730;5.356;2022-11-15T01:13:09;47.77;;;20.13;;
24617;SDS011;12762;51.730;5.356;2022-11-15T01:15:38;42.13;;;19.67;;
24617;SDS011;12762;51.730;5.356;2022-11-15T01:18:06;40.80;;;19.33;;
24617;SDS011;12762;51.730;5.356;2022-11-15T01:20:33;39.13;;;18.70;;
24617;SDS011;12762;51.730;5.356;2022-11-15T01:23:00;39.90;;;18.93;;
24617;SDS011;12762;51.730;5.356;2022-11-15T01:25:27;36.70;;;18.57;;
24617;SDS011;12762;51.730;5.356;2022-11-15T01:27:54;36.27;;;19.20;;
24617;SDS011;12762;51.730;5.356;2022-11-15T01:30:21;40.33;;;19.33;;
24617;SDS011;12762;51.730;5.356;2022-11-15T01:32:48;39.43;;;19.10;;
24617;SDS011;12762;51.730;5.356;2022-11-15T01:35:15;39.83;;;19.20;;
24617;SDS011;12762;51.730;5.356;2022-11-15T01:37:41;36.03;;;17.53;;
24617;SDS011;12762;51.730;5.356;2022-11-15T01:40:08;37.63;;;19.63;;
24617;SDS011;12762;51.730;5.356;2022-11-15T01:42:35;39.60;;;19.23;;
24617;SDS011;12762;51.730;5.356;2022-11-15T01:45:02;40.63;;;19.37;;
24617;SDS011;12762;51.730;5.356;2022-11-15T01:47:31;35.83;;;18.30;;
24617;SDS011;12762;51.730;5.356;2022-11-15T01:50:08;37.30;;;18.17;;
24617;SDS011;12762;51.730;5.356;2022-11-15T01:52:38;39.60;;;18.33;;
24617;SDS011;12762;51.730;5.356;2022-11-15T01:55:16;37.80;;;18.93;;
24617;SDS011;12762;51.730;5.356;2022-11-15T01:57:47;41.80;;;18.53;;
24617;SDS011;12762;51.730;5.356;2022-11-15T02:00:21;36.73;;;19.60;;
24617;SDS011;12762;51.730;5.356;2022-11-15T02:02:48;39.77;;;19.40;;
24617;SDS011;12762;51.730;5.356;2022-11-15T02:05:15;31.43;;;17.83;;
24617;SDS011;12762;51.730;5.356;2022-11-15T02:07:42;35.17;;;18.67;;
24617;SDS011;12762;51.730;5.356;2022-11-15T02:10:10;42.37;;;19.20;;
24617;SDS011;12762;51.730;5.356;2022-11-15T02:12:42;35.23;;;18.17;;
24617;SDS011;12762;51.730;5.356;2022-11-15T02:15:09;34.30;;;17.87;;
24617;SDS011;12762;51.730;5.356;2022-11-15T02:23:19;35.87;;;18.67;;
24617;SDS011;12762;51.730;5.356;2022-11-15T02:25:57;33.77;;;18.33;;
24617;SDS011;12762;51.730;5.356;2022-11-15T02:29:02;36.30;;;18.43;;
24617;SDS011;12762;51.730;5.356;2022-11-15T02:31:36;36.60;;;18.63;;
24617;SDS011;12762;51.730;5.356;2022-11-15T02:39:55;34.30;;;17.73;;
24617;SDS011;12762;51.730;5.356;2022-11-15T02:42:46;34.33;;;17.70;;
24617;SDS011;12762;51.730;5.356;2022-11-15T02:45:46;34.00;;;17.60;;
24617;SDS011;12762;51.730;5.356;2022-11-15T02:48:17;34.43;;;17.80;;
24617;SDS011;12762;51.730;5.356;2022-11-15T02:50:47;32.30;;;17.53;;
24617;SDS011;12762;51.730;5.356;2022-11-15T02:53:15;32.77;;;17.13;;
24617;SDS011;12762;51.730;5.356;2022-11-15T02:55:43;34.07;;;19.17;;
24617;SDS011;12762;51.730;5.356;2022-11-15T03:01:12;33.03;;;18.30;;
24617;SDS011;12762;51.730;5.356;2022-11-15T03:06:49;33.73;;;18.70;;
24617;SDS011;12762;51.730;5.356;2022-11-15T03:12:12;32.63;;;18.03;;
24617;SDS011;12762;51.730;5.356;2022-11-15T03:14:56;34.37;;;18.80;;
24617;SDS011;12762;51.730;5.356;2022-11-15T03:17:35;34.00;;;17.73;;
24617;SDS011;12762;51.730;5.356;2022-11-15T03:20:08;33.13;;;18.03;;
24617;SDS011;12762;51.730;5.356;2022-11-15T03:22:39;34.33;;;18.50;;
24617;SDS011;12762;51.730;5.356;2022-11-15T03:25:10;33.40;;;17.97;;
24617;SDS011;12762;51.730;5.356;2022-11-15T03:27:48;32.13;;;18.17;;
24617;SDS011;12762;51.730;5.356;2022-11-15T03:30:18;30.60;;;17.23;;
24617;SDS011;12762;51.730;5.356;2022-11-15T03:32:56;35.00;;;18.87;;
24617;SDS011;12762;51.730;5.356;2022-11-15T03:35:26;31.83;;;17.13;;
24617;SDS011;12762;51.730;5.356;2022-11-15T03:41:05;32.40;;;18.30;;
24617;SDS011;12762;51.730;5.356;2022-11-15T03:43:47;31.70;;;18.23;;
24617;SDS011;12762;51.730;5.356;2022-11-15T03:46:25;35.67;;;18.43;;
24617;SDS011;12762;51.730;5.356;2022-11-15T03:49:04;34.50;;;19.07;;
24617;SDS011;12762;51.730;5.356;2022-11-15T03:51:40;37.73;;;18.73;;
24617;SDS011;12762;51.730;5.356;2022-11-15T03:54:07;33.67;;;19.13;;
24617;SDS011;12762;51.730;5.356;2022-11-15T03:56:34;33.73;;;18.87;;
24617;SDS011;12762;51.730;5.356;2022-11-15T03:59:01;33.03;;;18.77;;
24617;SDS011;12762;51.730;5.356;2022-11-15T04:01:27;35.77;;;19.10;;
24617;SDS011;12762;51.730;5.356;2022-11-15T04:03:54;32.07;;;18.53;;
24617;SDS011;12762;51.730;5.356;2022-11-15T04:06:21;29.37;;;18.37;;
24617;SDS011;12762;51.730;5.356;2022-11-15T04:08:48;33.23;;;18.93;;
24617;SDS011;12762;51.730;5.356;2022-11-15T04:11:15;35.30;;;18.63;;
24617;SDS011;12762;51.730;5.356;2022-11-15T04:13:41;34.13;;;18.67;;
24617;SDS011;12762;51.730;5.356;2022-11-15T04:16:08;32.97;;;18.03;;
24617;SDS011;12762;51.730;5.356;2022-11-15T04:18:35;32.40;;;18.13;;
24617;SDS011;12762;51.730;5.356;2022-11-15T04:21:02;32.93;;;17.70;;
24617;SDS011;12762;51.730;5.356;2022-11-15T04:23:47;31.10;;;17.27;;
24617;SDS011;12762;51.730;5.356;2022-11-15T04:26:32;32.57;;;18.30;;
24617;SDS011;12762;51.730;5.356;2022-11-15T04:29:00;34.60;;;19.37;;
24617;SDS011;12762;51.730;5.356;2022-11-15T04:31:45;33.67;;;18.17;;
24617;SDS011;12762;51.730;5.356;2022-11-15T04:34:12;31.73;;;18.30;;
24617;SDS011;12762;51.730;5.356;2022-11-15T04:36:38;35.13;;;17.77;;
24617;SDS011;12762;51.730;5.356;2022-11-15T04:39:24;36.13;;;18.43;;
24617;SDS011;12762;51.730;5.356;2022-11-15T04:41:53;33.50;;;19.07;;
24617;SDS011;12762;51.730;5.356;2022-11-15T04:44:20;32.87;;;18.70;;
24617;SDS011;12762;51.730;5.356;2022-11-15T04:46:47;36.93;;;18.83;;
24617;SDS011;12762;51.730;5.356;2022-11-15T04:49:13;38.30;;;19.73;;
24617;SDS011;12762;51.730;5.356;2022-11-15T04:51:40;36.20;;;17.83;;
24617;SDS011;12762;51.730;5.356;2022-11-15T04:54:07;33.03;;;18.83;;
24617;SDS011;12762;51.730;5.356;2022-11-15T04:56:34;35.70;;;19.37;;
24617;SDS011;12762;51.730;5.356;2022-11-15T04:59:00;32.90;;;18.83;;
24617;SDS011;12762;51.730;5.356;2022-11-15T05:01:27;34.73;;;18.50;;
24617;SDS011;12762;51.730;5.356;2022-11-15T05:03:54;36.93;;;19.13;;
24617;SDS011;12762;51.730;5.356;2022-11-15T05:06:39;34.30;;;18.30;;
24617;SDS011;12762;51.730;5.356;2022-11-15T05:09:08;32.93;;;18.93;;
24617;SDS011;12762;51.730;5.356;2022-11-15T05:11:35;36.30;;;18.93;;
24617;SDS011;12762;51.730;5.356;2022-11-15T05:14:02;35.43;;;19.57;;
24617;SDS011;12762;51.730;5.356;2022-11-15T05:16:29;37.80;;;19.63;;
24617;SDS011;12762;51.730;5.356;2022-11-15T05:18:56;36.50;;;20.00;;
24617;SDS011;12762;51.730;5.356;2022-11-15T05:21:23;38.53;;;20.87;;
24617;SDS011;12762;51.730;5.356;2022-11-15T05:23:50;36.07;;;19.53;;
24617;SDS011;12762;51.730;5.356;2022-11-15T05:26:17;44.13;;;18.50;;
24617;SDS011;12762;51.730;5.356;2022-11-15T05:28:44;38.47;;;19.60;;
24617;SDS011;12762;51.730;5.356;2022-11-15T05:31:15;34.10;;;19.77;;
24617;SDS011;12762;51.730;5.356;2022-11-15T05:33:42;42.77;;;20.03;;
24617;SDS011;12762;51.730;5.356;2022-11-15T05:36:12;35.33;;;18.93;;
24617;SDS011;12762;51.730;5.356;2022-11-15T05:38:41;34.67;;;18.73;;
24617;SDS011;12762;51.730;5.356;2022-11-15T05:41:08;32.77;;;18.10;;
24617;SDS011;12762;51.730;5.356;2022-11-15T05:43:35;33.87;;;18.60;;
24617;SDS011;12762;51.730;5.356;2022-11-15T05:46:05;33.80;;;18.83;;
24617;SDS011;12762;51.730;5.356;2022-11-15T05:48:32;38.17;;;18.93;;
24617;SDS011;12762;51.730;5.356;2022-11-15T05:51:02;35.77;;;20.13;;
24617;SDS011;12762;51.730;5.356;2022-11-15T05:53:31;33.83;;;18.20;;
24617;SDS011;12762;51.730;5.356;2022-11-15T05:55:58;35.17;;;18.57;;
24617;SDS011;12762;51.730;5.356;2022-11-15T05:58:25;36.37;;;18.77;;
24617;SDS011;12762;51.730;5.356;2022-11-15T06:00:52;35.43;;;19.70;;
24617;SDS011;12762;51.730;5.356;2022-11-15T06:03:20;33.17;;;18.13;;
24617;SDS011;12762;51.730;5.356;2022-11-15T06:05:47;34.50;;;19.37;;
24617;SDS011;12762;51.730;5.356;2022-11-15T06:08:14;35.50;;;17.90;;
24617;SDS011;12762;51.730;5.356;2022-11-15T06:10:40;34.67;;;18.10;;
24617;SDS011;12762;51.730;5.356;2022-11-15T06:13:07;36.43;;;18.40;;
24617;SDS011;12762;51.730;5.356;2022-11-15T06:15:34;33.77;;;18.47;;
24617;SDS011;12762;51.730;5.356;2022-11-15T06:18:03;36.30;;;17.77;;
24617;SDS011;12762;51.730;5.356;2022-11-15T06:20:33;44.63;;;19.00;;
24617;SDS011;12762;51.730;5.356;2022-11-15T06:23:01;31.23;;;18.03;;
24617;SDS011;12762;51.730;5.356;2022-11-15T06:25:29;32.03;;;17.97;;
24617;SDS011;12762;51.730;5.356;2022-11-15T06:27:58;37.77;;;18.20;;
24617;SDS011;12762;51.730;5.356;2022-11-15T06:30:25;30.23;;;17.57;;
24617;SDS011;12762;51.730;5.356;2022-11-15T06:33:02;35.87;;;18.27;;
24617;SDS011;12762;51.730;5.356;2022-11-15T06:35:32;30.50;;;17.83;;
24617;SDS011;12762;51.730;5.356;2022-11-15T06:38:07;32.87;;;16.80;;
24617;SDS011;12762;51.730;5.356;2022-11-15T06:40:35;31.70;;;17.03;;
24617;SDS011;12762;51.730;5.356;2022-11-15T06:43:03;29.83;;;16.67;;
24617;SDS011;12762;51.730;5.356;2022-11-15T06:45:31;28.70;;;15.97;;
24617;SDS011;12762;51.730;5.356;2022-11-15T06:47:58;31.77;;;16.37;;
24617;SDS011;12762;51.730;5.356;2022-11-15T06:50:49;35.37;;;16.97;;
24617;SDS011;12762;51.730;5.356;2022-11-15T06:53:22;33.00;;;15.27;;
24617;SDS011;12762;51.730;5.356;2022-11-15T06:55:49;30.57;;;15.77;;
24617;SDS011;12762;51.730;5.356;2022-11-15T06:58:23;32.17;;;15.87;;
24617;SDS011;12762;51.730;5.356;2022-11-15T07:00:50;24.80;;;15.07;;
24617;SDS011;12762;51.730;5.356;2022-11-15T07:03:17;30.90;;;15.57;;
24617;SDS011;12762;51.730;5.356;2022-11-15T07:05:53;27.67;;;16.03;;
24617;SDS011;12762;51.730;5.356;2022-11-15T07:08:22;27.47;;;14.87;;
24617;SDS011;12762;51.730;5.356;2022-11-15T07:10:49;26.93;;;14.00;;
24617;SDS011;12762;51.730;5.356;2022-11-15T07:13:16;24.97;;;14.80;;
24617;SDS011;12762;51.730;5.356;2022-11-15T07:15:43;24.83;;;15.20;;
24617;SDS011;12762;51.730;5.356;2022-11-15T07:18:10;28.33;;;13.93;;
24617;SDS011;12762;51.730;5.356;2022-11-15T07:20:37;24.80;;;14.10;;
24617;SDS011;12762;51.730;5.356;2022-11-15T07:23:05;26.30;;;14.27;;
24617;SDS011;12762;51.730;5.356;2022-11-15T07:25:32;24.47;;;14.27;;
24617;SDS011;12762;51.730;5.356;2022-11-15T07:28:00;23.37;;;13.53;;
24617;SDS011;12762;51.730;5.356;2022-11-15T07:30:27;23.77;;;13.40;;
24617;SDS011;12762;51.730;5.356;2022-11-15T07:32:55;31.57;;;14.17;;
24617;SDS011;12762;51.730;5.356;2022-11-15T07:35:23;23.93;;;13.40;;
24617;SDS011;12762;51.730;5.356;2022-11-15T07:37:55;23.20;;;12.33;;
24617;SDS011;12762;51.730;5.356;2022-11-15T07:40:26;23.17;;;13.17;;
24617;SDS011;12762;51.730;5.356;2022-11-15T07:42:58;23.80;;;12.20;;
24617;SDS011;12762;51.730;5.356;2022-11-15T07:45:30;23.90;;;13.10;;
24617;SDS011;12762;51.730;5.356;2022-11-15T07:47:57;22.43;;;12.03;;
24617;SDS011;12762;51.730;5.356;2022-11-15T07:50:24;23.57;;;12.50;;
24617;SDS011;12762;51.730;5.356;2022-11-15T07:52:55;19.60;;;12.07;;
24617;SDS011;12762;51.730;5.356;2022-11-15T07:55:23;21.60;;;11.73;;
24617;SDS011;12762;51.730;5.356;2022-11-15T07:57:51;22.57;;;11.73;;
24617;SDS011;12762;51.730;5.356;2022-11-15T08:00:18;21.40;;;12.33;;
24617;SDS011;12762;51.730;5.356;2022-11-15T08:02:49;19.53;;;12.17;;
24617;SDS011;12762;51.730;5.356;2022-11-15T08:05:16;19.97;;;12.27;;
24617;SDS011;12762;51.730;5.356;2022-11-15T08:07:43;22.97;;;12.33;;
24617;SDS011;12762;51.730;5.356;2022-11-15T08:10:10;20.97;;;12.93;;
24617;SDS011;12762;51.730;5.356;2022-11-15T08:12:38;23.73;;;12.50;;
24617;SDS011;12762;51.730;5.356;2022-11-15T08:15:05;25.47;;;13.10;;
24617;SDS011;12762;51.730;5.356;2022-11-15T08:17:32;21.63;;;13.10;;
24617;SDS011;12762;51.730;5.356;2022-11-15T08:20:00;23.23;;;12.90;;
24617;SDS011;12762;51.730;5.356;2022-11-15T08:22:26;28.27;;;13.37;;
24617;SDS011;12762;51.730;5.356;2022-11-15T08:24:56;25.03;;;12.03;;
24617;SDS011;12762;51.730;5.356;2022-11-15T08:27:23;22.30;;;12.53;;
24617;SDS011;12762;51.730;5.356;2022-11-15T08:29:49;23.70;;;12.13;;
24617;SDS011;12762;51.730;5.356;2022-11-15T08:32:24;20.90;;;12.37;;
24617;SDS011;12762;51.730;5.356;2022-11-15T08:34:51;22.60;;;11.67;;
24617;SDS011;12762;51.730;5.356;2022-11-15T08:37:20;17.23;;;10.20;;
24617;SDS011;12762;51.730;5.356;2022-11-15T08:39:47;18.33;;;10.00;;
24617;SDS011;12762;51.730;5.356;2022-11-15T08:42:14;17.40;;;10.20;;
24617;SDS011;12762;51.730;5.356;2022-11-15T08:44:45;20.93;;;10.70;;
24617;SDS011;12762;51.730;5.356;2022-11-15T08:47:12;17.60;;;10.03;;
24617;SDS011;12762;51.730;5.356;2022-11-15T08:49:39;17.13;;;9.50;;
24617;SDS011;12762;51.730;5.356;2022-11-15T08:52:06;16.73;;;9.77;;
24617;SDS011;12762;51.730;5.356;2022-11-15T08:54:33;18.30;;;9.67;;
24617;SDS011;12762;51.730;5.356;2022-11-15T08:57:00;15.93;;;9.10;;
24617;SDS011;12762;51.730;5.356;2022-11-15T08:59:36;16.27;;;8.83;;
24617;SDS011;12762;51.730;5.356;2022-11-15T09:02:06;17.37;;;9.40;;
24617;SDS011;12762;51.730;5.356;2022-11-15T09:04:38;17.43;;;8.43;;
24617;SDS011;12762;51.730;5.356;2022-11-15T09:07:07;15.13;;;8.00;;
24617;SDS011;12762;51.730;5.356;2022-11-15T09:09:35;16.47;;;8.60;;
24617;SDS011;12762;51.730;5.356;2022-11-15T09:12:02;15.20;;;7.97;;
24617;SDS011;12762;51.730;5.356;2022-11-15T09:14:29;13.00;;;8.43;;
24617;SDS011;12762;51.730;5.356;2022-11-15T09:16:56;16.10;;;8.73;;
24617;SDS011;12762;51.730;5.356;2022-11-15T09:19:24;11.23;;;6.93;;
24617;SDS011;12762;51.730;5.356;2022-11-15T09:21:53;10.83;;;6.80;;
24617;SDS011;12762;51.730;5.356;2022-11-15T09:24:20;11.20;;;6.80;;
24617;SDS011;12762;51.730;5.356;2022-11-15T09:26:49;10.47;;;5.60;;
24617;SDS011;12762;51.730;5.356;2022-11-15T09:29:17;10.83;;;6.20;;
24617;SDS011;12762;51.730;5.356;2022-11-15T09:31:44;10.67;;;5.80;;
24617;SDS011;12762;51.730;5.356;2022-11-15T09:34:11;9.90;;;5.80;;
24617;SDS011;12762;51.730;5.356;2022-11-15T09:36:38;8.27;;;4.87;;
24617;SDS011;12762;51.730;5.356;2022-11-15T09:39:05;7.03;;;4.80;;
24617;SDS011;12762;51.730;5.356;2022-11-15T09:49:23;7.37;;;3.50;;
24617;SDS011;12762;51.730;5.356;2022-11-15T09:51:51;5.57;;;3.10;;
24617;SDS011;12762;51.730;5.356;2022-11-15T09:57:15;6.37;;;3.47;;
24617;SDS011;12762;51.730;5.356;2022-11-15T10:00:07;5.67;;;2.60;;
24617;SDS011;12762;51.730;5.356;2022-11-15T10:03:08;8.03;;;2.43;;
24617;SDS011;12762;51.730;5.356;2022-11-15T10:05:51;4.60;;;2.43;;
24617;SDS011;12762;51.730;5.356;2022-11-15T10:08:25;5.30;;;2.53;;
24617;SDS011;12762;51.730;5.356;2022-11-15T10:11:24;4.80;;;2.33;;
24617;SDS011;12762;51.730;5.356;2022-11-15T10:14:13;5.93;;;2.00;;
24617;SDS011;12762;51.730;5.356;2022-11-15T10:19:34;3.70;;;1.53;;
24617;SDS011;12762;51.730;5.356;2022-11-15T10:27:34;3.53;;;1.47;;
24617;SDS011;12762;51.730;5.356;2022-11-15T10:30:02;2.73;;;1.40;;
24617;SDS011;12762;51.730;5.356;2022-11-15T10:32:36;3.33;;;1.37;;
24617;SDS011;12762;51.730;5.356;2022-11-15T10:35:25;2.40;;;1.23;;
24617;SDS011;12762;51.730;5.356;2022-11-15T10:38:05;2.80;;;1.27;;
24617;SDS011;12762;51.730;5.356;2022-11-15T10:40:34;3.13;;;1.20;;
24617;SDS011;12762;51.730;5.356;2022-11-15T10:43:17;2.13;;;1.00;;
24617;SDS011;12762;51.730;5.356;2022-11-15T10:45:48;5.23;;;1.07;;
24617;SDS011;12762;51.730;5.356;2022-11-15T10:48:20;3.67;;;1.50;;
24617;SDS011;12762;51.730;5.356;2022-11-15T10:50:49;4.77;;;1.30;;
24617;SDS011;12762;51.730;5.356;2022-11-15T10:53:20;5.43;;;1.07;;
24617;SDS011;12762;51.730;5.356;2022-11-15T10:55:52;2.03;;;1.00;;
24617;SDS011;12762;51.730;5.356;2022-11-15T10:58:34;2.00;;;0.80;;
24617;SDS011;12762;51.730;5.356;2022-11-15T11:01:08;5.03;;;1.00;;
24617;SDS011;12762;51.730;5.356;2022-11-15T11:03:36;5.93;;;1.90;;
24617;SDS011;12762;51.730;5.356;2022-11-15T11:06:15;5.70;;;1.43;;
24617;SDS011;12762;51.730;5.356;2022-11-15T11:09:05;3.97;;;0.90;;
24617;SDS011;12762;51.730;5.356;2022-11-15T11:11:51;2.50;;;0.80;;
24617;SDS011;12762;51.730;5.356;2022-11-15T11:37:11;6.40;;;0.80;;
24617;SDS011;12762;51.730;5.356;2022-11-15T11:42:26;4.07;;;1.00;;
24617;SDS011;12762;51.730;5.356;2022-11-15T11:47:40;4.57;;;0.77;;
24617;SDS011;12762;51.730;5.356;2022-11-15T11:50:18;3.90;;;1.10;;
24617;SDS011;12762;51.730;5.356;2022-11-15T11:58:21;2.03;;;0.67;;
24617;SDS011;12762;51.730;5.356;2022-11-15T12:03:51;4.30;;;0.63;;
24617;SDS011;12762;51.730;5.356;2022-11-15T12:12:06;3.73;;;1.03;;
24617;SDS011;12762;51.730;5.356;2022-11-15T12:17:22;4.50;;;0.80;;
24617;SDS011;12762;51.730;5.356;2022-11-15T12:20:05;3.00;;;0.87;;
24617;SDS011;12762;51.730;5.356;2022-11-15T12:23:04;4.87;;;1.10;;
24617;SDS011;12762;51.730;5.356;2022-11-15T12:25:55;2.90;;;0.83;;
24617;SDS011;12762;51.730;5.356;2022-11-15T12:34:02;4.37;;;0.90;;
24617;SDS011;12762;51.730;5.356;2022-11-15T12:36:50;5.80;;;0.80;;
24617;SDS011;12762;51.730;5.356;2022-11-15T12:39:20;6.73;;;1.00;;
24617;SDS011;12762;51.730;5.356;2022-11-15T12:44:56;7.10;;;1.30;;
24617;SDS011;12762;51.730;5.356;2022-11-15T12:52:04;3.37;;;0.87;;
24617;SDS011;12762;51.730;5.356;2022-11-15T12:54:49;4.97;;;1.00;;
24617;SDS011;12762;51.730;5.356;2022-11-15T12:59:53;2.50;;;0.80;;
24617;SDS011;12762;51.730;5.356;2022-11-15T13:02:25;3.50;;;0.77;;
24617;SDS011;12762;51.730;5.356;2022-11-15T13:12:55;8.33;;;1.27;;
24617;SDS011;12762;51.730;5.356;2022-11-15T13:15:45;1.90;;;0.93;;
24617;SDS011;12762;51.730;5.356;2022-11-15T13:18:28;5.53;;;0.80;;
24617;SDS011;12762;51.730;5.356;2022-11-15T13:20:58;4.43;;;0.80;;
24617;SDS011;12762;51.730;5.356;2022-11-15T13:23:28;3.00;;;0.93;;
24617;SDS011;12762;51.730;5.356;2022-11-15T13:26:02;8.13;;;1.00;;
24617;SDS011;12762;51.730;5.356;2022-11-15T13:28:42;2.37;;;0.83;;
24617;SDS011;12762;51.730;5.356;2022-11-15T13:33:54;4.33;;;0.80;;
24617;SDS011;12762;51.730;5.356;2022-11-15T13:36:31;3.00;;;0.73;;
24617;SDS011;12762;51.730;5.356;2022-11-15T13:39:05;2.57;;;0.93;;
24617;SDS011;12762;51.730;5.356;2022-11-15T13:41:46;2.53;;;0.80;;
24617;SDS011;12762;51.730;5.356;2022-11-15T13:44:19;2.27;;;0.87;;
24617;SDS011;12762;51.730;5.356;2022-11-15T13:46:48;2.73;;;0.80;;
24617;SDS011;12762;51.730;5.356;2022-11-15T13:49:15;4.23;;;1.03;;
24617;SDS011;12762;51.730;5.356;2022-11-15T13:51:44;3.57;;;0.87;;
24617;SDS011;12762;51.730;5.356;2022-11-15T13:59:54;6.87;;;1.13;;
24617;SDS011;12762;51.730;5.356;2022-11-15T14:02:31;7.17;;;1.30;;
24617;SDS011;12762;51.730;5.356;2022-11-15T14:07:52;6.33;;;1.10;;
24617;SDS011;12762;51.730;5.356;2022-11-15T14:10:34;6.03;;;1.33;;
24617;SDS011;12762;51.730;5.356;2022-11-15T14:13:03;6.03;;;1.00;;
24617;SDS011;12762;51.730;5.356;2022-11-15T14:15:37;4.17;;;1.03;;
24617;SDS011;12762;51.730;5.356;2022-11-15T14:18:05;3.23;;;0.90;;
24617;SDS011;12762;51.730;5.356;2022-11-15T14:20:33;6.33;;;1.23;;
24617;SDS011;12762;51.730;5.356;2022-11-15T14:23:04;5.87;;;1.53;;
24617;SDS011;12762;51.730;5.356;2022-11-15T14:25:53;3.80;;;1.00;;
24617;SDS011;12762;51.730;5.356;2022-11-15T14:30:48;6.23;;;1.00;;
24617;SDS011;12762;51.730;5.356;2022-11-15T14:33:19;3.03;;;0.90;;
24617;SDS011;12762;51.730;5.356;2022-11-15T14:35:49;3.07;;;1.00;;
24617;SDS011;12762;51.730;5.356;2022-11-15T14:38:19;4.80;;;0.93;;
24617;SDS011;12762;51.730;5.356;2022-11-15T14:40:46;5.27;;;1.20;;
24617;SDS011;12762;51.730;5.356;2022-11-15T14:43:15;1.53;;;1.07;;
24617;SDS011;12762;51.730;5.356;2022-11-15T14:45:42;2.63;;;0.77;;
24617;SDS011;12762;51.730;5.356;2022-11-15T14:48:12;7.33;;;1.37;;
24617;SDS011;12762;51.730;5.356;2022-11-15T14:50:39;2.93;;;0.97;;
24617;SDS011;12762;51.730;5.356;2022-11-15T14:53:06;6.07;;;0.90;;
24617;SDS011;12762;51.730;5.356;2022-11-15T14:55:37;3.80;;;1.03;;
24617;SDS011;12762;51.730;5.356;2022-11-15T14:58:05;6.90;;;1.00;;
24617;SDS011;12762;51.730;5.356;2022-11-15T15:00:36;3.60;;;0.83;;
24617;SDS011;12762;51.730;5.356;2022-11-15T15:03:05;3.37;;;1.53;;
24617;SDS011;12762;51.730;5.356;2022-11-15T15:05:36;3.37;;;1.10;;
24617;SDS011;12762;51.730;5.356;2022-11-15T15:08:07;6.37;;;1.17;;
24617;SDS011;12762;51.730;5.356;2022-11-15T15:10:35;1.53;;;0.73;;
24617;SDS011;12762;51.730;5.356;2022-11-15T15:13:25;9.77;;;1.37;;
24617;SDS011;12762;51.730;5.356;2022-11-15T15:15:52;5.17;;;1.23;;
24617;SDS011;12762;51.730;5.356;2022-11-15T15:18:19;5.77;;;1.10;;
24617;SDS011;12762;51.730;5.356;2022-11-15T15:20:47;6.10;;;1.20;;
24617;SDS011;12762;51.730;5.356;2022-11-15T15:23:21;5.20;;;1.17;;
24617;SDS011;12762;51.730;5.356;2022-11-15T15:25:50;3.43;;;1.10;;
24617;SDS011;12762;51.730;5.356;2022-11-15T15:28:18;2.37;;;0.90;;
24617;SDS011;12762;51.730;5.356;2022-11-15T15:30:45;9.20;;;1.43;;
24617;SDS011;12762;51.730;5.356;2022-11-15T15:33:12;2.87;;;1.17;;
24617;SDS011;12762;51.730;5.356;2022-11-15T15:35:39;4.57;;;0.80;;
24617;SDS011;12762;51.730;5.356;2022-11-15T15:38:08;4.50;;;1.10;;
24617;SDS011;12762;51.730;5.356;2022-11-15T15:40:37;4.17;;;1.23;;
24617;SDS011;12762;51.730;5.356;2022-11-15T15:43:04;3.27;;;1.00;;
24617;SDS011;12762;51.730;5.356;2022-11-15T15:45:30;4.73;;;1.27;;
24617;SDS011;12762;51.730;5.356;2022-11-15T15:47:58;3.37;;;1.03;;
24617;SDS011;12762;51.730;5.356;2022-11-15T15:50:26;5.00;;;1.00;;
24617;SDS011;12762;51.730;5.356;2022-11-15T15:52:59;7.83;;;1.20;;
24617;SDS011;12762;51.730;5.356;2022-11-15T15:55:29;4.03;;;1.00;;
24617;SDS011;12762;51.730;5.356;2022-11-15T15:57:57;5.30;;;1.00;;
24617;SDS011;12762;51.730;5.356;2022-11-15T16:00:24;2.83;;;1.00;;
24617;SDS011;12762;51.730;5.356;2022-11-15T16:02:51;11.53;;;1.17;;
24617;SDS011;12762;51.730;5.356;2022-11-15T16:05:18;5.67;;;1.23;;
24617;SDS011;12762;51.730;5.356;2022-11-15T16:07:45;3.80;;;1.43;;
24617;SDS011;12762;51.730;5.356;2022-11-15T16:10:16;5.67;;;1.03;;
24617;SDS011;12762;51.730;5.356;2022-11-15T16:12:46;4.50;;;1.10;;
24617;SDS011;12762;51.730;5.356;2022-11-15T16:15:14;4.00;;;1.27;;
24617;SDS011;12762;51.730;5.356;2022-11-15T16:17:42;3.60;;;1.20;;
24617;SDS011;12762;51.730;5.356;2022-11-15T16:20:24;5.90;;;1.37;;
24617;SDS011;12762;51.730;5.356;2022-11-15T16:22:59;4.93;;;0.97;;
24617;SDS011;12762;51.730;5.356;2022-11-15T16:28:29;4.37;;;1.20;;
24617;SDS011;12762;51.730;5.356;2022-11-15T16:33:31;5.23;;;1.17;;
24617;SDS011;12762;51.730;5.356;2022-11-15T16:35:59;4.60;;;1.40;;
24617;SDS011;12762;51.730;5.356;2022-11-15T16:38:26;6.00;;;1.50;;
24617;SDS011;12762;51.730;5.356;2022-11-15T16:40:53;6.43;;;2.17;;
24617;SDS011;12762;51.730;5.356;2022-11-15T16:43:20;3.60;;;1.10;;
24617;SDS011;12762;51.730;5.356;2022-11-15T16:45:46;3.23;;;1.20;;
24617;SDS011;12762;51.730;5.356;2022-11-15T16:48:20;5.27;;;1.30;;
24617;SDS011;12762;51.730;5.356;2022-11-15T16:50:55;6.30;;;1.70;;
24617;SDS011;12762;51.730;5.356;2022-11-15T16:53:24;3.77;;;1.50;;
24617;SDS011;12762;51.730;5.356;2022-11-15T16:55:51;5.90;;;1.73;;
24617;SDS011;12762;51.730;5.356;2022-11-15T16:58:19;9.57;;;2.20;;
24617;SDS011;12762;51.730;5.356;2022-11-15T17:00:53;6.10;;;1.97;;
24617;SDS011;12762;51.730;5.356;2022-11-15T17:03:22;5.90;;;1.67;;